sensor_id;sensor_type;location;lat;lon;timestamp;pressure;altitude;pressure_sealevel;temperature;humidity
61086;BME280;46967;48.876;2.136;2023-07-13T00:01:57;101553.03;;;46.35;11.81
61086;BME280;46967;48.876;2.136;2023-07-13T00:04:24;101555.28;;;46.43;11.66
61086;BME280;46967;48.876;2.136;2023-07-13T00:06:50;101555.53;;;46.41;11.51
61086;BME280;46967;48.876;2.136;2023-07-13T00:09:16;101560.66;;;46.17;11.57
61086;BME280;46967;48.876;2.136;2023-07-13T00:11:43;101557.84;;;46.12;11.67
61086;BME280;46967;48.876;2.136;2023-07-13T00:14:09;101557.25;;;46.00;11.49
61086;BME280;46967;48.876;2.136;2023-07-13T00:16:35;101560.53;;;45.97;11.72
61086;BME280;46967;48.876;2.136;2023-07-13T00:19:01;101566.59;;;45.99;11.74
61086;BME280;46967;48.876;2.136;2023-07-13T00:21:26;101573.69;;;45.95;11.74
61086;BME280;46967;48.876;2.136;2023-07-13T00:23:52;101578.78;;;45.81;11.87
61086;BME280;46967;48.876;2.136;2023-07-13T00:26:17;101572.50;;;45.80;11.54
61086;BME280;46967;48.876;2.136;2023-07-13T00:28:43;101570.09;;;45.89;11.92
61086;BME280;46967;48.876;2.136;2023-07-13T00:31:10;101563.50;;;45.90;11.88
61086;BME280;46967;48.876;2.136;2023-07-13T00:33:36;101566.25;;;45.90;11.62
61086;BME280;46967;48.876;2.136;2023-07-13T00:36:02;101562.78;;;46.05;11.53
61086;BME280;46967;48.876;2.136;2023-07-13T00:38:28;101561.38;;;46.02;11.18
61086;BME280;46967;48.876;2.136;2023-07-13T00:40:53;101567.09;;;45.96;11.38
61086;BME280;46967;48.876;2.136;2023-07-13T00:43:21;101569.06;;;46.00;11.12
61086;BME280;46967;48.876;2.136;2023-07-13T00:48:15;101571.19;;;45.93;11.15
61086;BME280;46967;48.876;2.136;2023-07-13T00:50:44;101577.75;;;45.92;11.32
61086;BME280;46967;48.876;2.136;2023-07-13T00:53:10;101575.84;;;45.87;11.24
61086;BME280;46967;48.876;2.136;2023-07-13T00:55:37;101580.28;;;45.99;11.13
61086;BME280;46967;48.876;2.136;2023-07-13T00:58:03;101575.75;;;46.20;11.68
61086;BME280;46967;48.876;2.136;2023-07-13T01:00:30;101573.31;;;46.28;11.36
61086;BME280;46967;48.876;2.136;2023-07-13T01:02:56;101578.84;;;46.34;11.14
61086;BME280;46967;48.876;2.136;2023-07-13T01:05:22;101578.84;;;46.39;11.79
61086;BME280;46967;48.876;2.136;2023-07-13T01:07:49;101585.13;;;46.39;11.06
61086;BME280;46967;48.876;2.136;2023-07-13T01:10:16;101584.78;;;46.20;11.74
61086;BME280;46967;48.876;2.136;2023-07-13T01:12:41;101582.03;;;46.20;11.37
61086;BME280;46967;48.876;2.136;2023-07-13T01:18:08;101590.31;;;46.25;11.47
61086;BME280;46967;48.876;2.136;2023-07-13T01:20:34;101598.56;;;46.31;11.23
61086;BME280;46967;48.876;2.136;2023-07-13T01:23:02;101602.88;;;46.16;11.06
61086;BME280;46967;48.876;2.136;2023-07-13T01:25:28;101594.69;;;46.21;11.34
61086;BME280;46967;48.876;2.136;2023-07-13T01:27:54;101603.72;;;46.22;11.34
61086;BME280;46967;48.876;2.136;2023-07-13T01:30:19;101605.09;;;45.44;11.49
61086;BME280;46967;48.876;2.136;2023-07-13T01:32:45;101594.84;;;44.36;12.12
61086;BME280;46967;48.876;2.136;2023-07-13T01:35:10;101596.06;;;45.16;11.63
61086;BME280;46967;48.876;2.136;2023-07-13T01:37:37;101598.75;;;45.11;11.55
61086;BME280;46967;48.876;2.136;2023-07-13T01:40:04;101603.75;;;44.26;12.24
61086;BME280;46967;48.876;2.136;2023-07-13T01:42:29;101599.56;;;44.84;11.88
61086;BME280;46967;48.876;2.136;2023-07-13T01:44:55;101608.31;;;44.20;12.06
61086;BME280;46967;48.876;2.136;2023-07-13T01:47:20;101606.81;;;44.52;11.88
61086;BME280;46967;48.876;2.136;2023-07-13T01:49:46;101609.59;;;43.45;12.47
61086;BME280;46967;48.876;2.136;2023-07-13T01:52:12;101596.38;;;44.48;11.74
61086;BME280;46967;48.876;2.136;2023-07-13T01:54:37;101601.34;;;44.74;11.59
61086;BME280;46967;48.876;2.136;2023-07-13T01:57:03;101601.53;;;44.45;12.05
61086;BME280;46967;48.876;2.136;2023-07-13T01:59:28;101601.66;;;44.77;11.45
61086;BME280;46967;48.876;2.136;2023-07-13T02:01:54;101604.53;;;44.65;11.85
61086;BME280;46967;48.876;2.136;2023-07-13T02:04:19;101605.38;;;44.93;11.49
61086;BME280;46967;48.876;2.136;2023-07-13T02:06:44;101608.09;;;44.66;11.52
61086;BME280;46967;48.876;2.136;2023-07-13T02:09:10;101607.75;;;44.40;11.36
61086;BME280;46967;48.876;2.136;2023-07-13T02:11:35;101609.22;;;44.26;11.58
61086;BME280;46967;48.876;2.136;2023-07-13T02:14:01;101610.22;;;44.20;11.73
61086;BME280;46967;48.876;2.136;2023-07-13T02:16:27;101609.34;;;44.58;11.46
61086;BME280;46967;48.876;2.136;2023-07-13T02:18:53;101608.09;;;44.66;11.30
61086;BME280;46967;48.876;2.136;2023-07-13T02:21:20;101605.81;;;44.80;11.33
61086;BME280;46967;48.876;2.136;2023-07-13T02:23:45;101605.78;;;44.36;11.55
61086;BME280;46967;48.876;2.136;2023-07-13T02:26:11;101600.59;;;44.17;11.36
61086;BME280;46967;48.876;2.136;2023-07-13T02:28:36;101608.44;;;43.91;12.10
61086;BME280;46967;48.876;2.136;2023-07-13T02:31:12;101605.59;;;44.42;11.51
61086;BME280;46967;48.876;2.136;2023-07-13T02:33:38;101607.72;;;44.35;11.63
61086;BME280;46967;48.876;2.136;2023-07-13T02:36:03;101601.34;;;44.29;11.63
61086;BME280;46967;48.876;2.136;2023-07-13T02:38:31;101598.03;;;44.49;11.64
61086;BME280;46967;48.876;2.136;2023-07-13T02:40:59;101601.59;;;44.72;11.40
61086;BME280;46967;48.876;2.136;2023-07-13T02:43:24;101606.41;;;44.87;11.56
61086;BME280;46967;48.876;2.136;2023-07-13T02:45:49;101605.31;;;44.61;11.73
61086;BME280;46967;48.876;2.136;2023-07-13T02:48:14;101603.31;;;44.56;11.56
61086;BME280;46967;48.876;2.136;2023-07-13T02:50:40;101593.44;;;44.55;11.55
61086;BME280;46967;48.876;2.136;2023-07-13T02:53:05;101594.91;;;44.41;11.86
61086;BME280;46967;48.876;2.136;2023-07-13T02:55:31;101595.09;;;44.34;11.65
61086;BME280;46967;48.876;2.136;2023-07-13T02:57:56;101603.41;;;44.44;11.50
61086;BME280;46967;48.876;2.136;2023-07-13T03:00:22;101602.66;;;44.49;11.73
61086;BME280;46967;48.876;2.136;2023-07-13T03:02:48;101605.53;;;44.81;11.76
61086;BME280;46967;48.876;2.136;2023-07-13T03:05:13;101610.53;;;44.23;11.51
61086;BME280;46967;48.876;2.136;2023-07-13T03:07:40;101616.34;;;44.71;11.71
61086;BME280;46967;48.876;2.136;2023-07-13T03:10:06;101620.84;;;44.82;11.52
61086;BME280;46967;48.876;2.136;2023-07-13T03:12:32;101611.63;;;44.89;11.32
61086;BME280;46967;48.876;2.136;2023-07-13T03:14:57;101616.72;;;44.58;11.75
61086;BME280;46967;48.876;2.136;2023-07-13T03:17:23;101608.97;;;44.49;11.62
61086;BME280;46967;48.876;2.136;2023-07-13T03:19:49;101610.25;;;44.42;11.42
61086;BME280;46967;48.876;2.136;2023-07-13T03:22:19;101612.06;;;43.63;12.24
61086;BME280;46967;48.876;2.136;2023-07-13T03:24:44;101620.91;;;44.21;11.54
61086;BME280;46967;48.876;2.136;2023-07-13T03:27:10;101615.22;;;44.45;11.85
61086;BME280;46967;48.876;2.136;2023-07-13T03:29:35;101620.47;;;44.12;11.84
61086;BME280;46967;48.876;2.136;2023-07-13T03:32:01;101619.09;;;43.93;12.20
61086;BME280;46967;48.876;2.136;2023-07-13T03:34:26;101622.56;;;44.44;12.02
61086;BME280;46967;48.876;2.136;2023-07-13T03:36:54;101622.75;;;44.38;11.95
61086;BME280;46967;48.876;2.136;2023-07-13T03:39:19;101622.66;;;43.76;12.58
61086;BME280;46967;48.876;2.136;2023-07-13T03:41:45;101618.75;;;44.45;11.94
61086;BME280;46967;48.876;2.136;2023-07-13T03:44:11;101620.56;;;44.18;12.13
61086;BME280;46967;48.876;2.136;2023-07-13T03:46:36;101617.34;;;44.21;11.89
61086;BME280;46967;48.876;2.136;2023-07-13T03:49:04;101623.91;;;44.03;12.05
61086;BME280;46967;48.876;2.136;2023-07-13T03:51:30;101619.56;;;44.24;11.93
61086;BME280;46967;48.876;2.136;2023-07-13T03:53:56;101619.78;;;44.39;12.15
61086;BME280;46967;48.876;2.136;2023-07-13T03:56:22;101621.09;;;43.81;12.68
61086;BME280;46967;48.876;2.136;2023-07-13T03:58:49;101630.16;;;44.37;12.06
61086;BME280;46967;48.876;2.136;2023-07-13T04:01:17;101627.69;;;42.93;13.09
61086;BME280;46967;48.876;2.136;2023-07-13T04:03:43;101632.53;;;43.32;13.23
61086;BME280;46967;48.876;2.136;2023-07-13T04:06:14;101637.97;;;42.74;13.54
61086;BME280;46967;48.876;2.136;2023-07-13T04:08:40;101640.50;;;41.51;14.63
61086;BME280;46967;48.876;2.136;2023-07-13T04:11:06;101633.56;;;42.73;13.94
61086;BME280;46967;48.876;2.136;2023-07-13T04:13:32;101628.88;;;43.72;12.88
61086;BME280;46967;48.876;2.136;2023-07-13T04:15:57;101638.34;;;43.81;13.27
61086;BME280;46967;48.876;2.136;2023-07-13T04:18:23;101637.47;;;43.47;13.36
61086;BME280;46967;48.876;2.136;2023-07-13T04:20:49;101642.28;;;44.07;12.82
61086;BME280;46967;48.876;2.136;2023-07-13T04:23:16;101645.03;;;43.90;12.92
61086;BME280;46967;48.876;2.136;2023-07-13T04:25:45;101641.84;;;44.32;12.59
61086;BME280;46967;48.876;2.136;2023-07-13T04:28:11;101655.03;;;44.19;12.49
61086;BME280;46967;48.876;2.136;2023-07-13T04:30:36;101653.75;;;44.43;12.48
61086;BME280;46967;48.876;2.136;2023-07-13T04:33:02;101658.25;;;44.72;12.08
61086;BME280;46967;48.876;2.136;2023-07-13T04:35:27;101651.84;;;44.44;12.40
61086;BME280;46967;48.876;2.136;2023-07-13T04:37:53;101653.38;;;43.50;12.98
61086;BME280;46967;48.876;2.136;2023-07-13T04:40:19;101658.38;;;43.87;12.96
61086;BME280;46967;48.876;2.136;2023-07-13T04:42:45;101657.09;;;44.11;12.82
61086;BME280;46967;48.876;2.136;2023-07-13T04:45:11;101651.47;;;44.18;12.54
61086;BME280;46967;48.876;2.136;2023-07-13T04:47:37;101648.88;;;44.67;12.54
61086;BME280;46967;48.876;2.136;2023-07-13T04:50:02;101659.13;;;44.77;12.30
61086;BME280;46967;48.876;2.136;2023-07-13T04:52:28;101658.78;;;44.96;12.12
61086;BME280;46967;48.876;2.136;2023-07-13T04:54:53;101660.22;;;44.76;12.24
61086;BME280;46967;48.876;2.136;2023-07-13T04:57:19;101665.03;;;44.69;12.29
61086;BME280;46967;48.876;2.136;2023-07-13T04:59:44;101673.63;;;45.00;12.01
61086;BME280;46967;48.876;2.136;2023-07-13T05:02:10;101676.38;;;45.00;12.44
61086;BME280;46967;48.876;2.136;2023-07-13T05:04:35;101674.63;;;45.16;12.38
61086;BME280;46967;48.876;2.136;2023-07-13T05:07:00;101671.00;;;44.88;12.33
61086;BME280;46967;48.876;2.136;2023-07-13T05:09:26;101672.28;;;45.30;11.76
61086;BME280;46967;48.876;2.136;2023-07-13T05:11:52;101675.84;;;45.03;12.23
61086;BME280;46967;48.876;2.136;2023-07-13T05:14:17;101680.28;;;44.87;12.24
61086;BME280;46967;48.876;2.136;2023-07-13T05:16:42;101676.75;;;45.09;12.15
61086;BME280;46967;48.876;2.136;2023-07-13T05:19:09;101682.84;;;45.16;12.09
61086;BME280;46967;48.876;2.136;2023-07-13T05:21:34;101686.28;;;45.33;12.01
61086;BME280;46967;48.876;2.136;2023-07-13T05:23:59;101682.22;;;45.36;12.06
61086;BME280;46967;48.876;2.136;2023-07-13T05:26:25;101677.56;;;45.09;12.46
61086;BME280;46967;48.876;2.136;2023-07-13T05:28:50;101679.00;;;45.17;12.07
61086;BME280;46967;48.876;2.136;2023-07-13T05:31:15;101680.41;;;45.42;12.18
61086;BME280;46967;48.876;2.136;2023-07-13T05:33:41;101682.41;;;44.41;12.77
61086;BME280;46967;48.876;2.136;2023-07-13T05:36:06;101687.06;;;45.01;12.18
61086;BME280;46967;48.876;2.136;2023-07-13T05:38:32;101683.69;;;44.72;12.56
61086;BME280;46967;48.876;2.136;2023-07-13T05:40:58;101692.84;;;44.44;12.89
61086;BME280;46967;48.876;2.136;2023-07-13T05:43:24;101698.09;;;45.07;12.71
61086;BME280;46967;48.876;2.136;2023-07-13T05:45:52;101694.22;;;44.63;12.81
61086;BME280;46967;48.876;2.136;2023-07-13T05:48:17;101694.69;;;44.77;12.79
61086;BME280;46967;48.876;2.136;2023-07-13T05:50:43;101699.59;;;44.36;12.89
61086;BME280;46967;48.876;2.136;2023-07-13T05:53:08;101699.09;;;45.00;12.57
61086;BME280;46967;48.876;2.136;2023-07-13T05:55:34;101698.19;;;44.17;13.22
61086;BME280;46967;48.876;2.136;2023-07-13T05:58:00;101698.84;;;45.02;12.55
61086;BME280;46967;48.876;2.136;2023-07-13T06:00:26;101700.78;;;45.29;12.70
61086;BME280;46967;48.876;2.136;2023-07-13T06:02:51;101704.38;;;45.34;12.60
61086;BME280;46967;48.876;2.136;2023-07-13T06:05:16;101707.16;;;45.12;12.43
61086;BME280;46967;48.876;2.136;2023-07-13T06:07:42;101700.22;;;44.82;12.63
61086;BME280;46967;48.876;2.136;2023-07-13T06:10:08;101714.88;;;45.15;12.50
61086;BME280;46967;48.876;2.136;2023-07-13T06:12:33;101714.66;;;45.22;12.38
61086;BME280;46967;48.876;2.136;2023-07-13T06:14:58;101712.44;;;43.85;13.62
61086;BME280;46967;48.876;2.136;2023-07-13T06:17:24;101710.44;;;44.31;13.07
61086;BME280;46967;48.876;2.136;2023-07-13T06:19:49;101716.91;;;44.25;13.32
61086;BME280;46967;48.876;2.136;2023-07-13T06:22:14;101716.84;;;44.37;13.04
61086;BME280;46967;48.876;2.136;2023-07-13T06:24:40;101710.53;;;44.75;12.90
61086;BME280;46967;48.876;2.136;2023-07-13T06:27:05;101722.00;;;45.38;12.38
61086;BME280;46967;48.876;2.136;2023-07-13T06:29:30;101721.94;;;44.89;13.21
61086;BME280;46967;48.876;2.136;2023-07-13T06:31:56;101719.09;;;45.28;12.66
61086;BME280;46967;48.876;2.136;2023-07-13T06:34:22;101719.00;;;44.96;12.74
61086;BME280;46967;48.876;2.136;2023-07-13T06:36:47;101724.56;;;44.62;13.32
61086;BME280;46967;48.876;2.136;2023-07-13T06:39:12;101732.28;;;45.53;12.68
61086;BME280;46967;48.876;2.136;2023-07-13T06:41:38;101735.13;;;45.96;12.15
61086;BME280;46967;48.876;2.136;2023-07-13T06:44:04;101735.81;;;45.54;12.88
61086;BME280;46967;48.876;2.136;2023-07-13T06:46:29;101730.91;;;45.51;12.71
61086;BME280;46967;48.876;2.136;2023-07-13T06:48:55;101735.69;;;45.38;13.08
61086;BME280;46967;48.876;2.136;2023-07-13T06:51:21;101731.19;;;45.05;13.39
61086;BME280;46967;48.876;2.136;2023-07-13T06:53:46;101733.63;;;45.78;12.66
61086;BME280;46967;48.876;2.136;2023-07-13T06:56:12;101729.31;;;44.89;13.58
61086;BME280;46967;48.876;2.136;2023-07-13T06:58:37;101720.50;;;45.03;13.56
61086;BME280;46967;48.876;2.136;2023-07-13T07:01:04;101720.63;;;45.68;12.67
61086;BME280;46967;48.876;2.136;2023-07-13T07:03:30;101723.63;;;45.17;13.18
61086;BME280;46967;48.876;2.136;2023-07-13T07:06:09;101727.53;;;44.21;14.16
61086;BME280;46967;48.876;2.136;2023-07-13T07:08:37;101733.88;;;44.61;13.99
61086;BME280;46967;48.876;2.136;2023-07-13T07:11:03;101733.81;;;45.22;13.17
61086;BME280;46967;48.876;2.136;2023-07-13T07:13:28;101732.44;;;45.42;13.25
61086;BME280;46967;48.876;2.136;2023-07-13T07:15:55;101736.88;;;45.48;13.38
61086;BME280;46967;48.876;2.136;2023-07-13T07:18:20;101742.94;;;45.77;12.90
61086;BME280;46967;48.876;2.136;2023-07-13T07:20:46;101734.88;;;45.98;13.03
61086;BME280;46967;48.876;2.136;2023-07-13T07:23:11;101738.78;;;45.47;13.08
61086;BME280;46967;48.876;2.136;2023-07-13T07:25:36;101745.75;;;46.20;12.51
61086;BME280;46967;48.876;2.136;2023-07-13T07:28:07;101744.72;;;45.39;13.34
61086;BME280;46967;48.876;2.136;2023-07-13T07:30:33;101738.06;;;45.35;13.45
61086;BME280;46967;48.876;2.136;2023-07-13T07:32:58;101745.81;;;46.30;12.68
61086;BME280;46967;48.876;2.136;2023-07-13T07:35:24;101746.34;;;46.27;12.94
61086;BME280;46967;48.876;2.136;2023-07-13T07:37:49;101742.53;;;45.96;12.73
61086;BME280;46967;48.876;2.136;2023-07-13T07:40:15;101752.75;;;46.91;12.00
61086;BME280;46967;48.876;2.136;2023-07-13T07:42:40;101753.06;;;46.94;12.13
61086;BME280;46967;48.876;2.136;2023-07-13T07:45:06;101756.97;;;47.04;11.92
61086;BME280;46967;48.876;2.136;2023-07-13T07:47:31;101763.69;;;46.80;12.64
61086;BME280;46967;48.876;2.136;2023-07-13T07:49:57;101757.59;;;46.25;12.58
61086;BME280;46967;48.876;2.136;2023-07-13T07:52:22;101752.66;;;46.22;12.60
61086;BME280;46967;48.876;2.136;2023-07-13T07:54:48;101762.25;;;46.68;12.12
61086;BME280;46967;48.876;2.136;2023-07-13T07:57:13;101771.78;;;46.55;12.20
61086;BME280;46967;48.876;2.136;2023-07-13T07:59:38;101766.97;;;45.97;12.44
61086;BME280;46967;48.876;2.136;2023-07-13T08:02:04;101755.47;;;45.46;13.03
61086;BME280;46967;48.876;2.136;2023-07-13T08:04:29;101766.63;;;45.93;12.50
61086;BME280;46967;48.876;2.136;2023-07-13T08:06:55;101770.50;;;46.30;11.94
61086;BME280;46967;48.876;2.136;2023-07-13T08:09:21;101767.59;;;44.66;13.12
61086;BME280;46967;48.876;2.136;2023-07-13T08:11:47;101764.00;;;46.41;11.99
61086;BME280;46967;48.876;2.136;2023-07-13T08:14:12;101776.97;;;46.51;12.14
61086;BME280;46967;48.876;2.136;2023-07-13T08:16:37;101768.78;;;46.19;12.14
61086;BME280;46967;48.876;2.136;2023-07-13T08:19:03;101769.00;;;45.80;12.34
61086;BME280;46967;48.876;2.136;2023-07-13T08:21:29;101770.56;;;45.26;12.79
61086;BME280;46967;48.876;2.136;2023-07-13T08:23:55;101776.06;;;47.46;11.72
61086;BME280;46967;48.876;2.136;2023-07-13T08:26:21;101774.13;;;47.52;11.28
61086;BME280;46967;48.876;2.136;2023-07-13T08:28:47;101775.69;;;46.26;12.08
61086;BME280;46967;48.876;2.136;2023-07-13T08:31:13;101772.19;;;46.79;11.04
61086;BME280;46967;48.876;2.136;2023-07-13T08:33:39;101773.25;;;46.73;11.17
61086;BME280;46967;48.876;2.136;2023-07-13T08:36:06;101766.75;;;46.89;11.11
61086;BME280;46967;48.876;2.136;2023-07-13T08:38:31;101762.66;;;47.70;10.63
61086;BME280;46967;48.876;2.136;2023-07-13T08:40:57;101765.13;;;47.87;10.80
61086;BME280;46967;48.876;2.136;2023-07-13T08:43:28;101764.72;;;48.76;10.56
61086;BME280;46967;48.876;2.136;2023-07-13T08:46:18;101760.31;;;46.68;11.01
61086;BME280;46967;48.876;2.136;2023-07-13T08:48:52;101761.19;;;47.37;10.29
61086;BME280;46967;48.876;2.136;2023-07-13T08:51:40;101761.22;;;45.22;12.11
61086;BME280;46967;48.876;2.136;2023-07-13T08:54:27;101766.22;;;44.86;12.37
61086;BME280;46967;48.876;2.136;2023-07-13T08:56:53;101761.97;;;47.27;10.89
61086;BME280;46967;48.876;2.136;2023-07-13T08:59:22;101764.03;;;47.94;10.24
61086;BME280;46967;48.876;2.136;2023-07-13T09:02:14;101767.25;;;47.60;10.55
61086;BME280;46967;48.876;2.136;2023-07-13T09:04:46;101771.03;;;47.28;10.18
61086;BME280;46967;48.876;2.136;2023-07-13T09:10:32;101767.78;;;47.41;10.67
61086;BME280;46967;48.876;2.136;2023-07-13T09:13:11;101770.28;;;47.53;10.53
61086;BME280;46967;48.876;2.136;2023-07-13T09:15:43;101773.63;;;47.76;9.79
61086;BME280;46967;48.876;2.136;2023-07-13T09:20:57;101783.63;;;46.23;11.46
61086;BME280;46967;48.876;2.136;2023-07-13T09:23:27;101774.28;;;44.76;12.05
61086;BME280;46967;48.876;2.136;2023-07-13T09:28:41;101772.25;;;45.49;11.61
61086;BME280;46967;48.876;2.136;2023-07-13T09:31:15;101783.84;;;46.54;11.46
61086;BME280;46967;48.876;2.136;2023-07-13T09:33:41;101777.25;;;45.35;11.67
61086;BME280;46967;48.876;2.136;2023-07-13T09:36:31;101774.66;;;46.38;11.19
61086;BME280;46967;48.876;2.136;2023-07-13T09:39:25;101784.84;;;47.43;10.74
61086;BME280;46967;48.876;2.136;2023-07-13T09:44:38;101777.41;;;47.44;10.29
61086;BME280;46967;48.876;2.136;2023-07-13T09:47:15;101783.56;;;48.13;10.55
61086;BME280;46967;48.876;2.136;2023-07-13T09:49:41;101773.09;;;47.99;10.12
61086;BME280;46967;48.876;2.136;2023-07-13T09:52:12;101787.72;;;47.11;11.07
61086;BME280;46967;48.876;2.136;2023-07-13T09:54:37;101785.66;;;47.39;10.76
61086;BME280;46967;48.876;2.136;2023-07-13T09:57:23;101778.47;;;46.69;11.06
61086;BME280;46967;48.876;2.136;2023-07-13T09:59:52;101786.25;;;46.88;10.79
61086;BME280;46967;48.876;2.136;2023-07-13T10:02:30;101786.97;;;45.70;11.56
61086;BME280;46967;48.876;2.136;2023-07-13T10:05:05;101794.06;;;46.26;11.38
61086;BME280;46967;48.876;2.136;2023-07-13T10:07:31;101789.81;;;46.45;11.48
61086;BME280;46967;48.876;2.136;2023-07-13T10:10:00;101801.84;;;46.39;11.49
61086;BME280;46967;48.876;2.136;2023-07-13T10:12:30;101794.69;;;47.34;10.52
61086;BME280;46967;48.876;2.136;2023-07-13T10:15:00;101796.31;;;47.30;10.89
61086;BME280;46967;48.876;2.136;2023-07-13T10:17:31;101794.75;;;47.60;10.65
61086;BME280;46967;48.876;2.136;2023-07-13T10:20:02;101797.50;;;47.65;10.34
61086;BME280;46967;48.876;2.136;2023-07-13T10:22:46;101791.03;;;47.13;10.73
61086;BME280;46967;48.876;2.136;2023-07-13T10:25:18;101805.25;;;46.99;10.42
61086;BME280;46967;48.876;2.136;2023-07-13T10:27:45;101804.28;;;46.36;11.49
61086;BME280;46967;48.876;2.136;2023-07-13T10:30:18;101804.53;;;47.20;10.14
61086;BME280;46967;48.876;2.136;2023-07-13T10:32:48;101798.84;;;47.42;10.41
61086;BME280;46967;48.876;2.136;2023-07-13T10:35:16;101809.47;;;47.17;9.97
61086;BME280;46967;48.876;2.136;2023-07-13T10:38:07;101808.16;;;46.07;11.21
61086;BME280;46967;48.876;2.136;2023-07-13T10:40:39;101810.75;;;47.05;10.33
61086;BME280;46967;48.876;2.136;2023-07-13T10:43:18;101810.81;;;46.29;10.96
61086;BME280;46967;48.876;2.136;2023-07-13T10:45:46;101815.59;;;46.44;10.82
61086;BME280;46967;48.876;2.136;2023-07-13T10:48:15;101818.59;;;45.78;11.17
61086;BME280;46967;48.876;2.136;2023-07-13T10:50:43;101817.09;;;47.05;10.50
61086;BME280;46967;48.876;2.136;2023-07-13T11:01:12;101808.00;;;48.40;9.91
61086;BME280;46967;48.876;2.136;2023-07-13T11:08:57;101804.81;;;46.70;11.04
61086;BME280;46967;48.876;2.136;2023-07-13T11:16:35;101807.63;;;47.39;9.53
61086;BME280;46967;48.876;2.136;2023-07-13T11:21:27;101785.75;;;48.26;9.34
61086;BME280;46967;48.876;2.136;2023-07-13T11:31:59;101780.81;;;48.07;9.56
61086;BME280;46967;48.876;2.136;2023-07-13T11:34:35;101774.75;;;48.16;8.81
61086;BME280;46967;48.876;2.136;2023-07-13T11:37:01;101772.00;;;48.26;8.66
61086;BME280;46967;48.876;2.136;2023-07-13T11:42:07;101764.78;;;48.61;8.51
61086;BME280;46967;48.876;2.136;2023-07-13T11:44:34;101764.50;;;48.63;8.31
61086;BME280;46967;48.876;2.136;2023-07-13T11:47:09;101751.63;;;48.32;7.93
61086;BME280;46967;48.876;2.136;2023-07-13T11:49:42;101768.16;;;49.18;8.28
61086;BME280;46967;48.876;2.136;2023-07-13T11:52:13;101752.28;;;49.44;7.09
61086;BME280;46967;48.876;2.136;2023-07-13T11:54:50;101748.13;;;48.97;7.55
61086;BME280;46967;48.876;2.136;2023-07-13T11:59:50;101754.38;;;47.65;7.87
61086;BME280;46967;48.876;2.136;2023-07-13T12:02:40;101745.91;;;44.99;9.20
61086;BME280;46967;48.876;2.136;2023-07-13T12:05:11;101752.84;;;45.56;9.25
61086;BME280;46967;48.876;2.136;2023-07-13T12:07:38;101764.72;;;46.64;8.79
61086;BME280;46967;48.876;2.136;2023-07-13T12:12:53;101763.53;;;47.08;8.41
61086;BME280;46967;48.876;2.136;2023-07-13T12:15:21;101753.91;;;46.95;9.05
61086;BME280;46967;48.876;2.136;2023-07-13T12:17:47;101755.72;;;46.84;9.15
61086;BME280;46967;48.876;2.136;2023-07-13T12:20:27;101747.94;;;47.24;8.61
61086;BME280;46967;48.876;2.136;2023-07-13T12:22:58;101742.50;;;47.44;8.00
61086;BME280;46967;48.876;2.136;2023-07-13T12:25:24;101741.47;;;45.69;9.18
61086;BME280;46967;48.876;2.136;2023-07-13T12:27:51;101744.22;;;48.12;8.22
61086;BME280;46967;48.876;2.136;2023-07-13T12:30:32;101743.91;;;47.47;8.54
61086;BME280;46967;48.876;2.136;2023-07-13T12:33:11;101739.63;;;47.03;7.99
61086;BME280;46967;48.876;2.136;2023-07-13T12:35:46;101740.63;;;48.22;7.52
61086;BME280;46967;48.876;2.136;2023-07-13T12:38:12;101740.63;;;48.01;7.77
61086;BME280;46967;48.876;2.136;2023-07-13T12:40:39;101739.28;;;48.04;8.28
61086;BME280;46967;48.876;2.136;2023-07-13T12:43:11;101736.63;;;48.74;7.63
61086;BME280;46967;48.876;2.136;2023-07-13T12:45:37;101736.91;;;49.38;7.05
61086;BME280;46967;48.876;2.136;2023-07-13T12:48:13;101735.09;;;48.53;7.73
61086;BME280;46967;48.876;2.136;2023-07-13T12:50:42;101731.91;;;48.95;7.11
61086;BME280;46967;48.876;2.136;2023-07-13T12:53:17;101721.53;;;49.66;7.16
61086;BME280;46967;48.876;2.136;2023-07-13T12:55:47;101722.72;;;50.19;6.69
61086;BME280;46967;48.876;2.136;2023-07-13T12:58:26;101721.22;;;49.68;7.09
61086;BME280;46967;48.876;2.136;2023-07-13T13:00:54;101737.19;;;49.31;7.39
61086;BME280;46967;48.876;2.136;2023-07-13T13:05:46;101738.72;;;48.12;7.80
61086;BME280;46967;48.876;2.136;2023-07-13T13:08:12;101730.88;;;48.71;7.73
61086;BME280;46967;48.876;2.136;2023-07-13T13:10:38;101726.59;;;50.18;7.15
61086;BME280;46967;48.876;2.136;2023-07-13T13:13:03;101725.31;;;49.41;7.61
61086;BME280;46967;48.876;2.136;2023-07-13T13:15:28;101737.72;;;49.39;7.15
61086;BME280;46967;48.876;2.136;2023-07-13T13:17:55;101728.53;;;50.17;7.21
61086;BME280;46967;48.876;2.136;2023-07-13T13:20:21;101729.22;;;48.80;7.72
61086;BME280;46967;48.876;2.136;2023-07-13T13:22:47;101728.13;;;49.71;6.92
61086;BME280;46967;48.876;2.136;2023-07-13T13:25:14;101724.63;;;50.18;6.97
61086;BME280;46967;48.876;2.136;2023-07-13T13:27:43;101721.38;;;49.03;7.42
61086;BME280;46967;48.876;2.136;2023-07-13T13:30:14;101717.56;;;48.07;8.23
61086;BME280;46967;48.876;2.136;2023-07-13T13:32:42;101719.50;;;47.76;8.35
61086;BME280;46967;48.876;2.136;2023-07-13T13:35:16;101727.44;;;49.05;7.46
61086;BME280;46967;48.876;2.136;2023-07-13T13:37:43;101722.84;;;49.74;7.16
61086;BME280;46967;48.876;2.136;2023-07-13T13:40:20;101724.09;;;49.92;7.14
61086;BME280;46967;48.876;2.136;2023-07-13T13:42:49;101722.69;;;50.48;7.51
61086;BME280;46967;48.876;2.136;2023-07-13T13:45:16;101718.75;;;50.30;7.02
61086;BME280;46967;48.876;2.136;2023-07-13T13:47:43;101708.00;;;50.53;7.01
61086;BME280;46967;48.876;2.136;2023-07-13T13:50:17;101719.09;;;49.20;7.79
61086;BME280;46967;48.876;2.136;2023-07-13T13:52:43;101709.06;;;49.35;7.28